createdAt,value
2018-11-10T00:00:44.373Z,24.37
2018-11-10T00:03:12.903Z,24.97
2018-11-10T00:05:41.454Z,25.20
2018-11-10T00:08:09.994Z,28.33
2018-11-10T00:10:38.572Z,28.53
2018-11-10T00:13:07.147Z,24.27
2018-11-10T00:15:35.716Z,26.40
2018-11-10T00:18:04.376Z,26.70
2018-11-10T00:20:32.884Z,25.63
2018-11-10T00:23:01.445Z,24.77
2018-11-10T00:25:30.024Z,24.40
2018-11-10T00:27:58.666Z,26.30
2018-11-10T00:30:27.312Z,24.60
2018-11-10T00:32:55.876Z,24.13
2018-11-10T00:35:24.760Z,22.93
2018-11-10T00:37:53.292Z,24.83
2018-11-10T00:40:21.944Z,23.00
2018-11-10T00:42:50.499Z,22.37
2018-11-10T00:45:19.428Z,24.60
2018-11-10T00:47:48.227Z,23.27
2018-11-10T00:50:16.805Z,25.20
2018-11-10T00:52:45.397Z,23.07
2018-11-10T00:55:13.919Z,22.13
2018-11-10T00:57:42.488Z,22.77
2018-11-10T01:00:12.565Z,22.43
2018-11-10T01:02:42.139Z,22.83
2018-11-10T01:05:10.877Z,21.97
2018-11-10T01:07:39.976Z,24.20
2018-11-10T01:10:10.303Z,23.83
2018-11-10T01:12:38.892Z,21.00
2018-11-10T01:15:09.409Z,24.40
2018-11-10T01:17:37.956Z,24.10
2018-11-10T01:20:07.629Z,24.43
2018-11-10T01:22:36.212Z,23.60
2018-11-10T01:25:05.382Z,25.13
2018-11-10T01:27:33.936Z,24.70
2018-11-10T01:30:02.585Z,25.00
2018-11-10T01:32:31.292Z,26.67
2018-11-10T01:34:59.827Z,24.67
2018-11-10T01:37:28.470Z,27.10
2018-11-10T01:39:57.008Z,25.80
2018-11-10T01:42:25.616Z,24.03
2018-11-10T01:44:54.217Z,25.40
2018-11-10T01:47:22.755Z,24.30
2018-11-10T01:49:51.413Z,25.20
2018-11-10T01:52:19.954Z,25.40
2018-11-10T01:54:48.692Z,26.33
2018-11-10T01:57:17.244Z,23.17
2018-11-10T01:59:45.859Z,22.83
2018-11-10T02:02:14.501Z,23.10
2018-11-10T02:04:43.024Z,26.30
2018-11-10T02:07:11.560Z,21.83
2018-11-10T02:09:40.199Z,24.10
2018-11-10T02:12:08.747Z,21.77
2018-11-10T02:14:37.384Z,23.17
2018-11-10T02:17:06.123Z,23.77
2018-11-10T02:19:34.819Z,23.93
2018-11-10T02:22:03.465Z,24.83
2018-11-10T02:24:32.156Z,24.83
2018-11-10T02:27:00.776Z,24.60
2018-11-10T02:29:29.380Z,22.53
2018-11-10T02:31:57.887Z,23.27
2018-11-10T02:34:26.505Z,24.60
2018-11-10T02:36:55.056Z,24.10
2018-11-10T02:39:23.598Z,23.47
2018-11-10T02:41:52.264Z,22.20
2018-11-10T02:44:20.760Z,23.10
2018-11-10T02:46:49.342Z,22.97
2018-11-10T02:49:17.864Z,24.10
2018-11-10T02:51:46.376Z,23.73
2018-11-10T02:54:14.924Z,24.80
2018-11-10T02:56:43.852Z,24.07
2018-11-10T02:59:12.433Z,23.87
2018-11-10T03:01:41.017Z,22.17
2018-11-10T03:04:09.588Z,21.50
2018-11-10T03:06:38.061Z,20.90
2018-11-10T03:09:07.899Z,21.37
2018-11-10T03:11:36.526Z,21.13
2018-11-10T03:14:05.104Z,22.23
2018-11-10T03:16:34.020Z,21.67
2018-11-10T03:19:02.728Z,22.33
2018-11-10T03:21:31.219Z,20.20
2018-11-10T03:23:59.732Z,20.30
2018-11-10T03:26:28.272Z,21.10
2018-11-10T03:28:56.780Z,21.30
2018-11-10T03:31:25.448Z,21.37
2018-11-10T03:33:54.043Z,23.50
2018-11-10T03:36:22.608Z,21.90
2018-11-10T03:38:51.104Z,20.07
2018-11-10T03:41:19.630Z,21.83
2018-11-10T03:43:48.146Z,21.60
2018-11-10T03:46:16.808Z,22.10
2018-11-10T03:48:45.472Z,22.37
2018-11-10T03:51:13.968Z,23.37
2018-11-10T03:53:42.696Z,23.43
2018-11-10T03:56:11.192Z,22.60
2018-11-10T03:58:39.883Z,22.13
2018-11-10T04:01:08.516Z,21.27
2018-11-10T04:03:37.129Z,22.33
2018-11-10T04:06:05.769Z,22.43
2018-11-10T04:08:34.239Z,26.00
2018-11-10T04:11:02.868Z,24.43
2018-11-10T04:13:31.392Z,20.47
2018-11-10T04:15:59.919Z,23.47
2018-11-10T04:18:28.532Z,24.03
2018-11-10T04:20:57.096Z,22.83
2018-11-10T04:23:25.715Z,23.20
2018-11-10T04:25:54.271Z,24.70
2018-11-10T04:28:22.793Z,24.97
2018-11-10T04:30:51.408Z,24.90
2018-11-10T04:33:19.974Z,27.23
2018-11-10T04:35:48.747Z,23.30
2018-11-10T04:38:17.253Z,24.80
2018-11-10T04:40:45.856Z,24.33
2018-11-10T04:43:14.428Z,25.20
2018-11-10T04:45:42.940Z,23.03
2018-11-10T04:48:11.598Z,22.00
2018-11-10T04:50:40.126Z,23.20
2018-11-10T04:53:08.647Z,25.07
2018-11-10T04:55:37.248Z,23.47
2018-11-10T04:58:06.018Z,24.80
2018-11-10T05:00:34.788Z,27.33
2018-11-10T05:03:03.364Z,25.00
2018-11-10T05:05:31.832Z,25.67
2018-11-10T05:08:00.596Z,26.33
2018-11-10T05:10:29.247Z,25.00
2018-11-10T05:12:57.976Z,25.90
2018-11-10T05:15:26.492Z,25.00
2018-11-10T05:17:55.032Z,26.03
2018-11-10T05:20:23.695Z,25.17
2018-11-10T05:22:52.171Z,25.97
2018-11-10T05:25:20.795Z,29.40
2018-11-10T05:27:49.368Z,28.00
2018-11-10T05:30:17.903Z,28.30
2018-11-10T05:32:46.556Z,24.87
2018-11-10T05:35:15.092Z,27.43
2018-11-10T05:37:43.757Z,28.63
2018-11-10T05:40:12.717Z,27.70
2018-11-10T05:42:41.752Z,27.70
2018-11-10T05:45:10.887Z,28.20
2018-11-10T05:47:39.592Z,28.60
2018-11-10T05:50:08.959Z,29.93
2018-11-10T05:52:37.516Z,28.90
2018-11-10T05:55:07.276Z,27.50
2018-11-10T05:57:35.944Z,28.13
2018-11-10T06:00:06.248Z,25.10
2018-11-10T06:02:34.890Z,27.07
2018-11-10T06:05:03.635Z,26.67
2018-11-10T06:07:32.636Z,26.00
2018-11-10T06:10:01.302Z,26.97
2018-11-10T06:12:29.900Z,27.27
2018-11-10T06:14:58.444Z,26.40
2018-11-10T06:17:26.961Z,26.90
2018-11-10T06:19:55.820Z,26.63
2018-11-10T06:22:24.336Z,27.63
2018-11-10T06:24:52.877Z,28.77
2018-11-10T06:27:21.522Z,27.63
2018-11-10T06:29:50.118Z,30.07
2018-11-10T06:32:18.788Z,26.70
2018-11-10T06:34:47.310Z,24.70
2018-11-10T06:37:15.940Z,26.67
2018-11-10T06:39:44.563Z,28.70
2018-11-10T06:42:13.067Z,27.90
2018-11-10T06:44:41.798Z,29.03
2018-11-10T06:47:10.367Z,27.37
2018-11-10T06:49:38.904Z,29.53
2018-11-10T06:52:07.519Z,29.43
2018-11-10T06:54:36.012Z,28.70
2018-11-10T06:57:04.961Z,27.57
2018-11-10T06:59:33.581Z,28.17
2018-11-10T07:02:02.180Z,27.30
2018-11-10T07:04:31.275Z,27.50
2018-11-10T07:06:59.832Z,30.80
2018-11-10T07:09:28.532Z,27.20
2018-11-10T07:11:57.101Z,29.27
2018-11-10T07:14:25.596Z,27.43
2018-11-10T07:16:54.225Z,29.57
2018-11-10T07:19:22.900Z,28.70
2018-11-10T07:21:51.547Z,31.10
2018-11-10T07:24:20.136Z,30.83
2018-11-10T07:26:48.669Z,27.77
2018-11-10T07:29:17.260Z,27.60
2018-11-10T07:31:45.918Z,27.00
2018-11-10T07:34:14.480Z,29.40
2018-11-10T07:36:43.348Z,34.27
2018-11-10T07:39:12.636Z,28.53
2018-11-10T07:41:41.497Z,27.47
2018-11-10T07:44:10.108Z,27.13
2018-11-10T07:46:38.632Z,27.90
2018-11-10T07:49:07.250Z,28.83
2018-11-10T07:51:35.853Z,28.90
2018-11-10T07:54:04.560Z,28.60
2018-11-10T07:56:33.311Z,27.97
2018-11-10T07:59:01.864Z,30.20
2018-11-10T08:01:30.744Z,26.03
2018-11-10T08:03:59.436Z,26.60
2018-11-10T08:06:28.120Z,28.43
2018-11-10T08:08:57.814Z,32.33
2018-11-10T08:11:26.464Z,29.20
2018-11-10T08:13:55.544Z,27.50
2018-11-10T08:16:24.460Z,27.77
2018-11-10T08:18:53.101Z,26.10
2018-11-10T08:21:21.629Z,28.60
2018-11-10T08:23:50.213Z,26.87
2018-11-10T08:26:18.849Z,27.53
2018-11-10T08:28:47.408Z,27.37
2018-11-10T08:31:16.122Z,25.87
2018-11-10T08:33:44.653Z,24.60
2018-11-10T08:36:13.161Z,28.23
2018-11-10T08:38:41.939Z,26.40
2018-11-10T08:41:10.444Z,26.47
2018-11-10T08:43:39.209Z,27.50
2018-11-10T08:46:07.883Z,26.83
2018-11-10T08:48:36.409Z,26.53
2018-11-10T08:51:05.379Z,27.67
2018-11-10T08:53:34.076Z,26.70
2018-11-10T08:56:02.629Z,26.77
2018-11-10T08:58:31.284Z,27.17
2018-11-10T09:00:59.892Z,28.13
2018-11-10T09:03:28.518Z,25.67
2018-11-10T09:05:57.049Z,25.23
2018-11-10T09:08:25.650Z,25.27
2018-11-10T09:10:54.220Z,25.67
2018-11-10T09:13:23.041Z,25.60
2018-11-10T09:15:51.620Z,26.60
2018-11-10T09:18:20.378Z,25.00
2018-11-10T09:20:48.920Z,24.40
2018-11-10T09:23:17.441Z,24.20
2018-11-10T09:25:46.136Z,25.23
2018-11-10T09:28:14.843Z,23.70
2018-11-10T09:30:43.586Z,25.53
2018-11-10T09:33:12.080Z,24.13
2018-11-10T09:35:40.662Z,24.13
2018-11-10T09:38:09.385Z,24.43
2018-11-10T09:40:37.908Z,25.03
2018-11-10T09:43:06.548Z,22.70
2018-11-10T09:45:35.084Z,22.53
2018-11-10T09:48:03.633Z,24.00
2018-11-10T09:50:32.201Z,25.80
2018-11-10T09:53:00.825Z,23.00
2018-11-10T09:55:29.467Z,21.10
2018-11-10T09:57:58.063Z,22.70
2018-11-10T10:00:26.713Z,22.47
2018-11-10T10:02:55.299Z,21.83
2018-11-10T10:05:23.896Z,21.67
2018-11-10T10:07:52.463Z,22.50
2018-11-10T10:10:21.414Z,21.23
2018-11-10T10:12:49.956Z,22.70
2018-11-10T10:15:19.299Z,22.57
2018-11-10T10:17:48.220Z,21.93
2018-11-10T10:20:18.092Z,22.10
2018-11-10T10:22:47.698Z,20.97
2018-11-10T10:25:16.861Z,23.20
2018-11-10T10:27:46.399Z,23.07
2018-11-10T10:30:17.253Z,24.93
2018-11-10T10:32:47.192Z,23.40
2018-11-10T10:35:16.297Z,21.80
2018-11-10T10:37:45.715Z,21.13
2018-11-10T10:40:15.140Z,22.57
2018-11-10T10:42:44.309Z,21.43
2018-11-10T10:45:14.459Z,21.07
2018-11-10T10:47:43.352Z,22.43
2018-11-10T10:50:13.526Z,20.67
2018-11-10T10:52:42.378Z,21.60
2018-11-10T10:55:12.756Z,20.73
2018-11-10T10:57:41.876Z,20.63
2018-11-10T11:00:17.232Z,21.90
2018-11-10T11:02:51.273Z,19.80
2018-11-10T11:06:22.428Z,22.13
2018-11-10T11:08:51.152Z,21.33
2018-11-10T11:11:19.909Z,21.70
2018-11-10T11:13:48.673Z,19.00
2018-11-10T11:16:17.268Z,20.60
2018-11-10T11:18:46.003Z,20.27
2018-11-10T11:21:14.529Z,19.20
2018-11-10T11:23:43.115Z,20.17
2018-11-10T11:26:11.627Z,18.80
2018-11-10T11:28:40.263Z,19.43
2018-11-10T11:31:08.915Z,21.97
2018-11-10T11:33:37.414Z,23.23
2018-11-10T11:36:06.072Z,25.07
2018-11-10T11:38:34.602Z,22.00
2018-11-10T11:41:03.150Z,27.60
2018-11-10T11:43:31.749Z,35.90
2018-11-10T11:46:00.329Z,29.50
2018-11-10T11:48:28.909Z,32.30
2018-11-10T11:50:57.469Z,24.17
2018-11-10T11:53:25.979Z,24.33
2018-11-10T11:55:54.564Z,31.50
2018-11-10T11:58:23.186Z,25.10
2018-11-10T12:00:51.817Z,24.80
2018-11-10T12:03:20.376Z,22.27
2018-11-10T12:05:48.879Z,21.30
2018-11-10T12:08:17.620Z,22.20
2018-11-10T12:10:46.174Z,21.00
2018-11-10T12:13:14.902Z,21.20
2018-11-10T12:15:43.500Z,19.77
2018-11-10T12:18:12.166Z,20.07
2018-11-10T12:20:40.738Z,19.77
2018-11-10T12:23:09.232Z,16.30
2018-11-10T12:25:37.828Z,14.53
2018-11-10T12:28:06.916Z,11.20
2018-11-10T12:30:35.984Z,10.90
2018-11-10T12:33:04.523Z,7.70
2018-11-10T12:35:33.161Z,8.23
2018-11-10T12:38:01.716Z,6.20
2018-11-10T12:40:30.240Z,6.07
2018-11-10T12:42:58.839Z,5.20
2018-11-10T12:45:27.470Z,3.20
2018-11-10T12:47:56.053Z,3.40
2018-11-10T12:50:24.660Z,2.33
2018-11-10T12:52:53.255Z,12.70
2018-11-10T12:55:21.882Z,12.43
2018-11-10T12:57:50.575Z,13.77
2018-11-10T13:00:19.100Z,10.40
2018-11-10T13:02:47.740Z,11.07
2018-11-10T13:05:16.295Z,2.00
2018-11-10T13:07:46.239Z,13.93
2018-11-10T13:10:14.740Z,15.50
2018-11-10T13:12:43.912Z,16.40
2018-11-10T13:15:12.544Z,15.40
2018-11-10T13:17:41.237Z,13.90
2018-11-10T13:20:12.574Z,15.47
2018-11-10T13:22:41.108Z,16.77
2018-11-10T13:25:10.916Z,14.47
2018-11-10T13:27:39.545Z,14.50
2018-11-10T13:30:10.098Z,15.37
2018-11-10T13:32:39.011Z,17.20
2018-11-10T13:35:08.861Z,15.60
2018-11-10T13:37:38.096Z,16.10
2018-11-10T13:40:07.589Z,15.83
2018-11-10T13:42:36.199Z,17.30
2018-11-10T13:45:05.765Z,14.60
2018-11-10T13:47:34.365Z,17.97
2018-11-10T13:50:03.400Z,17.97
2018-11-10T13:52:32.290Z,15.80
2018-11-10T13:55:00.524Z,17.50
2018-11-10T13:57:29.145Z,12.90
2018-11-10T13:59:57.796Z,14.63
2018-11-10T14:02:26.657Z,16.73
2018-11-10T14:04:55.172Z,18.03
2018-11-10T14:07:23.684Z,18.60
2018-11-10T14:09:52.291Z,17.33
2018-11-10T14:12:20.956Z,19.00
2018-11-10T14:14:49.504Z,17.90
2018-11-10T14:17:18.080Z,17.70
2018-11-10T14:19:46.680Z,17.40
2018-11-10T14:22:15.327Z,20.87
2018-11-10T14:24:43.878Z,17.47
2018-11-10T14:27:12.501Z,15.50
2018-11-10T14:29:41.084Z,15.53
2018-11-10T14:32:09.568Z,14.33
2018-11-10T14:34:38.092Z,17.90
2018-11-10T14:37:06.676Z,16.87
2018-11-10T14:39:35.213Z,16.37
2018-11-10T14:42:03.748Z,16.10
2018-11-10T14:44:32.328Z,16.80
2018-11-10T14:47:01.204Z,15.13
2018-11-10T14:49:29.712Z,15.97
2018-11-10T14:51:58.380Z,13.50
2018-11-10T14:54:26.952Z,12.57
2018-11-10T14:56:55.496Z,7.53
2018-11-10T14:59:24.016Z,3.23
2018-11-10T15:01:52.614Z,3.60
2018-11-10T15:04:21.248Z,4.50
2018-11-10T15:06:49.888Z,2.87
2018-11-10T15:09:18.400Z,2.00
2018-11-10T15:11:47.092Z,2.23
2018-11-10T15:14:15.584Z,3.00
2018-11-10T15:16:44.347Z,2.10
2018-11-10T15:19:12.975Z,3.90
2018-11-10T15:21:41.456Z,8.20
2018-11-10T15:24:10.002Z,3.70
2018-11-10T15:26:38.568Z,13.03
2018-11-10T15:29:07.256Z,10.53
2018-11-10T15:31:35.753Z,7.70
2018-11-10T15:34:04.257Z,10.50
2018-11-10T15:36:32.808Z,6.37
2018-11-10T15:39:01.332Z,4.80
2018-11-10T15:41:30.101Z,3.37
2018-11-10T15:43:58.692Z,3.63
2018-11-10T15:46:27.300Z,6.80
2018-11-10T15:48:55.888Z,3.27
2018-11-10T15:51:24.617Z,5.90
2018-11-10T15:53:53.240Z,2.30
2018-11-10T15:56:22.700Z,1.90
2018-11-10T15:58:51.378Z,1.90
2018-11-10T16:01:20.112Z,7.80
2018-11-10T16:03:48.740Z,4.77
2018-11-10T16:06:17.573Z,5.87
2018-11-10T16:08:51.901Z,2.40
2018-11-10T16:11:23.172Z,3.20
2018-11-10T16:13:56.035Z,3.20
2018-11-10T16:16:29.606Z,2.63
2018-11-10T16:18:58.219Z,2.53
2018-11-10T16:21:26.849Z,2.60
2018-11-10T16:23:55.470Z,3.23
2018-11-10T16:26:24.232Z,2.57
2018-11-10T16:28:53.832Z,2.53
2018-11-10T16:31:22.401Z,5.60
2018-11-10T16:33:51.459Z,3.23
2018-11-10T16:36:20.948Z,1.37
2018-11-10T16:38:53.071Z,1.10
2018-11-10T16:41:23.014Z,0.97
2018-11-10T16:43:52.074Z,1.00
2018-11-10T16:46:20.949Z,1.53
2018-11-10T16:48:49.508Z,1.20
2018-11-10T16:51:18.217Z,2.10
2018-11-10T16:53:46.799Z,1.70
2018-11-10T16:56:15.443Z,1.10
2018-11-10T16:58:44.967Z,3.50
2018-11-10T17:01:13.708Z,1.80
2018-11-10T17:03:42.331Z,1.70
2018-11-10T17:06:10.942Z,2.40
2018-11-10T17:08:40.476Z,1.30
2018-11-10T17:11:09.001Z,2.90
2018-11-10T17:13:37.862Z,3.97
2018-11-10T17:16:06.755Z,4.07
2018-11-10T17:18:35.541Z,5.23
2018-11-10T17:21:04.373Z,5.70
2018-11-10T17:23:33.076Z,6.87
2018-11-10T17:26:01.730Z,5.63
2018-11-10T17:28:30.629Z,5.40
2018-11-10T17:30:59.883Z,6.43
2018-11-10T17:33:28.639Z,5.97
2018-11-10T17:35:57.344Z,5.70
2018-11-10T17:38:28.271Z,7.40
2018-11-10T17:40:57.245Z,6.37
2018-11-10T17:43:25.894Z,5.50
2018-11-10T17:45:54.505Z,6.00
2018-11-10T17:48:23.166Z,5.10
2018-11-10T17:50:51.912Z,6.40
2018-11-10T17:53:20.581Z,6.10
2018-11-10T17:55:49.236Z,4.47
2018-11-10T17:58:18.481Z,4.60
2018-11-10T18:00:47.392Z,3.60
2018-11-10T18:06:26.516Z,4.43
2018-11-10T18:08:54.996Z,4.93
2018-11-10T18:11:23.661Z,4.40
2018-11-10T18:13:52.388Z,4.27
2018-11-10T18:16:23.508Z,3.80
2018-11-10T18:18:52.174Z,4.83
2018-11-10T18:21:20.661Z,6.43
2018-11-10T18:23:49.259Z,9.33
2018-11-10T18:26:17.807Z,5.70
2018-11-10T18:28:46.512Z,6.20
2018-11-10T18:31:15.012Z,5.70
2018-11-10T18:33:43.475Z,6.20
2018-11-10T18:36:12.020Z,4.30
2018-11-10T18:38:40.603Z,3.50
2018-11-10T18:41:09.948Z,3.67
2018-11-10T18:43:38.476Z,3.50
2018-11-10T18:46:07.061Z,3.70
2018-11-10T18:48:35.764Z,4.00
2018-11-10T18:51:04.348Z,4.90
2018-11-10T18:53:32.924Z,3.93
2018-11-10T18:56:01.408Z,3.00
2018-11-10T18:58:30.008Z,3.10
2018-11-10T19:00:58.518Z,4.07
2018-11-10T19:03:27.017Z,5.03
2018-11-10T19:05:55.707Z,3.50
2018-11-10T19:08:24.188Z,4.50
2018-11-10T19:10:53.318Z,3.80
2018-11-10T19:13:21.892Z,3.60
2018-11-10T19:15:50.456Z,4.27
2018-11-10T19:18:19.106Z,4.30
2018-11-10T19:20:47.670Z,3.97
2018-11-10T19:23:19.228Z,4.07
2018-11-10T19:25:47.861Z,4.30
2018-11-10T19:28:16.517Z,3.33
2018-11-10T19:30:45.048Z,5.27
2018-11-10T19:33:14.309Z,4.87
2018-11-10T19:35:43.005Z,3.67
2018-11-10T19:38:11.521Z,3.30
2018-11-10T19:40:40.109Z,3.40
2018-11-10T19:43:08.896Z,2.80
2018-11-10T19:45:37.516Z,3.30
2018-11-10T19:48:06.395Z,3.70
2018-11-10T19:50:34.944Z,3.43
2018-11-10T19:53:03.713Z,6.57
2018-11-10T19:55:32.309Z,6.43
2018-11-10T19:58:01.099Z,4.70
2018-11-10T20:00:29.903Z,5.50
2018-11-10T20:02:58.474Z,6.50
2018-11-10T20:05:27.078Z,4.80
2018-11-10T20:07:55.656Z,3.70
2018-11-10T20:10:24.450Z,4.00
2018-11-10T20:12:53.523Z,2.97
2018-11-10T20:15:22.040Z,2.33
2018-11-10T20:17:50.753Z,4.13
2018-11-10T20:20:20.048Z,5.70
2018-11-10T20:22:48.579Z,5.90
2018-11-10T20:25:18.405Z,2.50
2018-11-10T20:27:47.624Z,3.60
2018-11-10T20:30:17.705Z,6.27
2018-11-10T20:32:46.558Z,4.77
2018-11-10T20:35:15.424Z,5.17
2018-11-10T20:37:44.865Z,7.30
2018-11-10T20:40:14.204Z,3.73
2018-11-10T20:42:42.900Z,3.23
2018-11-10T20:45:14.121Z,4.40
2018-11-10T20:47:43.469Z,2.90
2018-11-10T20:50:12.664Z,2.97
2018-11-10T20:52:41.289Z,6.60
2018-11-10T20:55:11.268Z,3.00
2018-11-10T20:57:39.962Z,4.27
2018-11-10T21:00:11.012Z,2.83
2018-11-10T21:02:40.396Z,3.33
2018-11-10T21:05:10.168Z,6.33
2018-11-10T21:07:38.799Z,4.43
2018-11-10T21:10:09.877Z,6.60
2018-11-10T21:12:39.220Z,8.40
2018-11-10T21:15:08.640Z,3.67
2018-11-10T21:17:37.652Z,2.70
2018-11-10T21:20:07.166Z,2.90
2018-11-10T21:22:35.708Z,2.23
2018-11-10T21:25:13.800Z,3.37
2018-11-10T21:27:42.516Z,3.20
2018-11-10T21:30:12.731Z,2.77
2018-11-10T21:32:41.312Z,3.20
2018-11-10T21:35:10.123Z,2.90
2018-11-10T21:37:39.195Z,4.33
2018-11-10T21:40:16.856Z,4.13
2018-11-10T21:42:45.468Z,4.60
2018-11-10T21:45:15.064Z,5.17
2018-11-10T21:47:43.887Z,4.50
2018-11-10T21:50:14.768Z,6.50
2018-11-10T21:52:44.056Z,5.77
2018-11-10T21:55:14.168Z,4.37
2018-11-10T21:57:43.482Z,4.77
2018-11-10T22:00:13.976Z,4.97
2018-11-10T22:02:43.264Z,4.80
2018-11-10T22:05:12.196Z,5.30
2018-11-10T22:07:40.932Z,5.73
2018-11-10T22:10:11.955Z,4.57
2018-11-10T22:12:40.908Z,7.13
2018-11-10T22:15:12.399Z,6.60
2018-11-10T22:17:41.668Z,5.70
2018-11-10T22:20:12.064Z,8.30
2018-11-10T22:22:40.910Z,5.50
2018-11-10T22:25:11.164Z,3.70
2018-11-10T22:27:41.088Z,4.33
2018-11-10T22:30:11.723Z,4.97
2018-11-10T22:32:41.540Z,3.17
2018-11-10T22:35:10.668Z,5.00
2018-11-10T22:37:39.286Z,4.03
2018-11-10T22:40:11.084Z,2.70
2018-11-10T22:42:40.252Z,3.00
2018-11-10T22:45:10.684Z,3.80
2018-11-10T22:47:40.233Z,4.40
2018-11-10T22:50:13.668Z,4.80
2018-11-10T22:52:42.572Z,3.40
2018-11-10T22:55:11.365Z,3.13
2018-11-10T22:57:40.280Z,3.07
2018-11-10T23:00:30.412Z,2.47
2018-11-10T23:03:00.911Z,3.07
2018-11-10T23:05:29.508Z,2.43
2018-11-10T23:07:58.036Z,2.43
2018-11-10T23:10:26.632Z,2.43
2018-11-10T23:12:55.328Z,2.40
2018-11-10T23:15:32.852Z,1.90
2018-11-10T23:18:01.473Z,1.80
2018-11-10T23:20:30.207Z,1.13
2018-11-10T23:22:59.374Z,6.70
2018-11-10T23:25:27.828Z,5.60
2018-11-10T23:27:56.428Z,2.10
2018-11-10T23:30:25.005Z,1.73
2018-11-10T23:32:53.603Z,0.90
2018-11-10T23:35:22.132Z,1.10
2018-11-10T23:37:50.632Z,1.03
2018-11-10T23:40:19.189Z,0.90
2018-11-10T23:42:47.704Z,0.93
2018-11-10T23:45:17.108Z,1.33
2018-11-10T23:47:45.736Z,1.30
2018-11-10T23:50:15.632Z,1.10
2018-11-10T23:52:44.148Z,1.10
2018-11-10T23:55:13.488Z,1.10
2018-11-10T23:57:41.961Z,1.07
